createdAt,value
2022-10-15T00:01:32.106Z,11.67
2022-10-15T00:04:03.922Z,11.67
2022-10-15T00:06:31.898Z,11.57
2022-10-15T00:08:59.059Z,11.42
2022-10-15T00:11:28.559Z,11.37
2022-10-15T00:14:00.791Z,11.24
2022-10-15T00:16:29.717Z,11.15
2022-10-15T00:18:59.188Z,11.38
2022-10-15T00:21:26.685Z,11.43
2022-10-15T00:23:54.252Z,11.37
2022-10-15T00:26:28.468Z,11.32
2022-10-15T00:29:00.408Z,11.14
2022-10-15T00:31:30.568Z,11.17
2022-10-15T00:34:01.019Z,10.98
2022-10-15T00:36:34.083Z,10.96
2022-10-15T00:39:02.375Z,10.85
2022-10-15T00:41:36.967Z,10.68
2022-10-15T00:44:24.172Z,10.81
2022-10-15T00:47:04.996Z,10.96
2022-10-15T00:49:39.201Z,11.03
2022-10-15T00:52:50.867Z,10.95
2022-10-15T00:55:32.705Z,10.71
2022-10-15T00:58:14.144Z,10.61
2022-10-15T01:00:42.472Z,10.64
2022-10-15T01:03:10.230Z,10.86
2022-10-15T01:05:39.299Z,10.93
2022-10-15T01:08:11.320Z,11.10
2022-10-15T01:11:11.793Z,11.07
2022-10-15T01:14:13.334Z,11.04
2022-10-15T01:17:14.541Z,11.03
2022-10-15T01:20:12.886Z,10.99
2022-10-15T01:23:02.780Z,11.10
2022-10-15T01:25:44.516Z,11.25
2022-10-15T01:28:20.790Z,11.30
2022-10-15T01:31:02.639Z,11.43
2022-10-15T01:33:54.767Z,11.21
2022-10-15T01:37:12.220Z,11.08
2022-10-15T01:39:56.256Z,11.31
2022-10-15T01:42:39.134Z,11.26
2022-10-15T01:45:12.978Z,11.16
2022-10-15T01:48:05.653Z,11.01
2022-10-15T01:50:37.812Z,10.86
2022-10-15T01:53:08.137Z,10.66
2022-10-15T01:55:37.853Z,10.56
2022-10-15T01:58:06.291Z,10.51
2022-10-15T02:00:33.604Z,10.37
2022-10-15T02:03:04.660Z,10.18
2022-10-15T02:05:51.938Z,10.15
2022-10-15T02:09:15.638Z,10.36
2022-10-15T02:12:53.139Z,10.54
2022-10-15T02:15:31.637Z,10.66
2022-10-15T02:18:39.781Z,11.34
2022-10-15T02:21:14.365Z,11.45
2022-10-15T02:23:56.791Z,11.65
2022-10-15T02:26:30.522Z,11.71
2022-10-15T02:29:01.159Z,11.76
2022-10-15T02:31:33.436Z,11.76
2022-10-15T02:34:07.843Z,11.89
2022-10-15T02:36:41.422Z,11.90
2022-10-15T02:39:13.207Z,11.92
2022-10-15T02:41:40.721Z,11.83
2022-10-15T02:44:10.702Z,11.75
2022-10-15T02:46:38.337Z,11.60
2022-10-15T02:49:06.239Z,11.45
2022-10-15T02:51:35.476Z,11.40
2022-10-15T02:54:05.219Z,11.21
2022-10-15T02:56:32.648Z,10.97
2022-10-15T02:59:00.183Z,10.85
2022-10-15T03:01:27.619Z,10.72
2022-10-15T03:03:55.038Z,10.62
2022-10-15T03:06:22.436Z,10.50
2022-10-15T03:08:50.604Z,10.53
2022-10-15T03:11:18.040Z,10.36
2022-10-15T03:13:45.324Z,10.32
2022-10-15T03:16:13.393Z,10.34
2022-10-15T03:18:44.366Z,10.61
2022-10-15T03:21:11.788Z,10.61
2022-10-15T03:23:40.008Z,10.43
2022-10-15T03:26:14.062Z,10.58
2022-10-15T03:28:42.023Z,10.56
2022-10-15T03:31:09.787Z,10.79
2022-10-15T03:33:37.022Z,10.83
2022-10-15T03:36:04.752Z,10.63
2022-10-15T03:38:32.689Z,10.42
2022-10-15T03:41:00.378Z,10.34
2022-10-15T03:43:37.552Z,10.38
2022-10-15T03:46:08.504Z,10.40
2022-10-15T03:48:40.273Z,10.60
2022-10-15T03:51:07.562Z,11.08
2022-10-15T03:53:35.394Z,11.37
2022-10-15T03:56:06.866Z,11.48
2022-10-15T03:58:38.036Z,11.67
2022-10-15T04:01:17.136Z,11.58
2022-10-15T04:03:44.949Z,11.44
2022-10-15T04:06:14.018Z,11.63
2022-10-15T04:08:41.416Z,11.88
2022-10-15T04:11:22.014Z,12.27
2022-10-15T04:13:58.884Z,12.23
2022-10-15T04:16:26.279Z,12.43
2022-10-15T04:18:53.656Z,12.68
2022-10-15T04:21:21.618Z,12.64
2022-10-15T04:23:54.724Z,12.71
2022-10-15T04:26:27.512Z,12.79
2022-10-15T04:28:54.816Z,12.72
2022-10-15T04:31:24.000Z,12.94
2022-10-15T04:33:51.292Z,13.08
2022-10-15T04:36:18.740Z,13.06
2022-10-15T04:38:52.846Z,13.18
2022-10-15T04:41:30.788Z,13.17
2022-10-15T04:44:05.227Z,13.26
2022-10-15T04:46:33.225Z,13.28
2022-10-15T04:49:08.349Z,13.37
2022-10-15T04:51:35.808Z,13.40
2022-10-15T04:54:28.893Z,13.46
2022-10-15T04:56:59.248Z,13.39
2022-10-15T04:59:27.874Z,13.41
2022-10-15T05:02:17.882Z,13.37
2022-10-15T05:04:49.562Z,13.35
2022-10-15T05:07:17.003Z,13.45
2022-10-15T05:09:46.501Z,13.37
2022-10-15T05:12:14.607Z,13.44
2022-10-15T05:14:42.044Z,13.59
2022-10-15T05:17:19.062Z,13.60
2022-10-15T05:19:46.483Z,13.66
2022-10-15T05:22:21.239Z,13.67
2022-10-15T05:24:59.872Z,13.66
2022-10-15T05:27:36.157Z,13.73
2022-10-15T05:30:05.962Z,13.84
2022-10-15T05:32:42.661Z,13.84
2022-10-15T05:35:12.604Z,13.86
2022-10-15T05:38:04.747Z,13.87
2022-10-15T05:40:32.077Z,13.92
2022-10-15T05:43:07.989Z,13.96
2022-10-15T05:45:35.187Z,14.00
2022-10-15T05:48:05.474Z,14.06
2022-10-15T05:50:33.144Z,14.13
2022-10-15T05:53:02.643Z,14.24
2022-10-15T05:55:42.721Z,14.34
2022-10-15T05:58:10.022Z,14.35
2022-10-15T06:00:39.567Z,14.29
2022-10-15T06:03:06.770Z,14.33
2022-10-15T06:05:34.090Z,14.41
2022-10-15T06:08:01.290Z,14.36
2022-10-15T06:10:28.639Z,14.40
2022-10-15T06:12:55.989Z,14.53
2022-10-15T06:15:23.213Z,14.50
2022-10-15T06:17:54.331Z,14.47
2022-10-15T06:20:21.689Z,14.44
2022-10-15T06:22:49.025Z,14.63
2022-10-15T06:25:16.770Z,14.76
2022-10-15T06:27:44.008Z,14.83
2022-10-15T06:30:11.661Z,14.82
2022-10-15T06:32:38.943Z,14.81
2022-10-15T06:35:06.845Z,14.75
2022-10-15T06:37:34.440Z,14.84
2022-10-15T06:40:01.697Z,14.82
2022-10-15T06:42:28.945Z,14.83
2022-10-15T06:44:56.209Z,14.90
2022-10-15T06:47:23.571Z,14.89
2022-10-15T06:49:50.944Z,14.91
2022-10-15T06:52:18.194Z,14.94
2022-10-15T06:54:45.464Z,15.03
2022-10-15T06:57:14.271Z,14.89
2022-10-15T06:59:41.786Z,14.84
2022-10-15T07:02:14.283Z,14.86
2022-10-15T07:04:41.665Z,14.85
2022-10-15T07:07:09.342Z,14.91
2022-10-15T07:09:36.925Z,14.86
2022-10-15T07:12:05.075Z,14.86
2022-10-15T07:14:32.628Z,14.80
2022-10-15T07:17:00.378Z,14.82
2022-10-15T07:19:29.205Z,14.83
2022-10-15T07:21:57.013Z,14.77
2022-10-15T07:24:24.410Z,14.81
2022-10-15T07:26:51.729Z,14.91
2022-10-15T07:29:19.069Z,15.04
2022-10-15T07:31:47.095Z,14.96
2022-10-15T07:34:17.216Z,15.04
2022-10-15T07:36:44.442Z,15.17
2022-10-15T07:39:11.953Z,15.05
2022-10-15T07:41:39.460Z,15.16
2022-10-15T07:44:06.976Z,15.30
2022-10-15T07:46:34.559Z,15.37
2022-10-15T07:49:01.951Z,15.49
2022-10-15T07:51:29.209Z,15.49
2022-10-15T07:53:56.797Z,15.58
2022-10-15T07:56:24.176Z,15.47
2022-10-15T07:58:54.353Z,15.47
2022-10-15T08:01:22.209Z,15.52
2022-10-15T08:03:49.558Z,15.50
2022-10-15T08:06:17.456Z,15.62
2022-10-15T08:08:45.106Z,15.91
2022-10-15T08:11:15.833Z,16.11
2022-10-15T08:13:43.858Z,15.98
2022-10-15T08:16:14.372Z,16.03
2022-10-15T08:18:42.968Z,16.36
2022-10-15T08:21:11.918Z,16.55
2022-10-15T08:23:39.185Z,16.86
2022-10-15T08:26:06.708Z,17.14
2022-10-15T08:28:35.706Z,17.21
2022-10-15T08:31:05.874Z,17.18
2022-10-15T08:33:36.117Z,16.81
2022-10-15T08:36:06.556Z,16.59
2022-10-15T08:38:35.381Z,16.58
2022-10-15T08:41:12.695Z,16.48
2022-10-15T08:43:46.814Z,16.40
2022-10-15T08:46:30.194Z,16.12
2022-10-15T08:49:00.932Z,16.00
2022-10-15T08:51:53.585Z,15.98
2022-10-15T08:54:20.950Z,15.74
2022-10-15T08:56:54.934Z,15.78
2022-10-15T08:59:46.632Z,15.79
2022-10-15T09:02:29.252Z,15.67
2022-10-15T09:05:50.140Z,15.70
2022-10-15T09:08:29.017Z,15.54
2022-10-15T09:11:19.575Z,15.39
2022-10-15T09:13:47.129Z,15.42
2022-10-15T09:16:29.470Z,15.39
2022-10-15T09:18:58.661Z,15.29
2022-10-15T09:21:26.802Z,15.25
2022-10-15T09:24:02.620Z,15.35
2022-10-15T09:27:24.433Z,15.33
2022-10-15T09:30:25.789Z,15.41
2022-10-15T09:33:07.057Z,15.48
2022-10-15T09:35:48.154Z,15.56
2022-10-15T09:38:45.046Z,15.54
2022-10-15T09:41:33.221Z,15.56
2022-10-15T09:44:03.655Z,15.62
2022-10-15T09:46:47.983Z,15.61
2022-10-15T09:49:26.001Z,15.46
2022-10-15T09:52:07.618Z,15.42
2022-10-15T09:54:50.092Z,15.50
2022-10-15T09:57:20.055Z,15.41
2022-10-15T09:59:56.902Z,15.59
2022-10-15T10:02:26.104Z,15.52
2022-10-15T10:04:54.416Z,15.47
2022-10-15T10:07:38.308Z,15.42
2022-10-15T10:10:28.716Z,15.52
2022-10-15T10:12:57.173Z,15.62
2022-10-15T10:15:42.864Z,15.66
2022-10-15T10:18:32.170Z,15.52
2022-10-15T10:21:03.767Z,15.56
2022-10-15T10:23:35.248Z,15.50
2022-10-15T10:26:11.072Z,15.60
2022-10-15T10:28:53.770Z,15.56
2022-10-15T10:31:42.530Z,15.57
2022-10-15T10:34:21.015Z,15.62
2022-10-15T10:36:53.244Z,15.60
2022-10-15T10:39:34.315Z,15.58
2022-10-15T10:42:07.401Z,15.59
2022-10-15T10:44:46.558Z,15.51
2022-10-15T10:47:26.052Z,15.51
2022-10-15T10:49:58.978Z,15.57
2022-10-15T10:52:34.371Z,15.63
2022-10-15T10:55:18.522Z,15.65
2022-10-15T10:57:50.958Z,15.63
2022-10-15T11:00:41.394Z,15.59
2022-10-15T11:03:33.225Z,15.79
2022-10-15T11:06:26.037Z,15.74
2022-10-15T11:09:36.473Z,15.86
2022-10-15T11:12:12.356Z,16.02
2022-10-15T11:14:48.482Z,16.07
2022-10-15T11:17:52.386Z,16.41
2022-10-15T11:20:59.702Z,16.57
2022-10-15T11:23:55.923Z,16.56
2022-10-15T11:27:11.449Z,16.67
2022-10-15T11:29:58.181Z,16.68
2022-10-15T11:32:47.917Z,16.62
2022-10-15T11:35:51.984Z,16.80
2022-10-15T11:38:22.783Z,16.93
2022-10-15T11:40:58.749Z,17.22
2022-10-15T11:44:09.464Z,17.52
2022-10-15T11:46:58.282Z,17.67
2022-10-15T11:50:01.441Z,17.93
2022-10-15T11:52:49.095Z,18.11
2022-10-15T11:55:57.523Z,19.37
2022-10-15T11:58:47.565Z,19.22
2022-10-15T12:01:37.474Z,18.30
2022-10-15T12:04:44.254Z,18.03
2022-10-15T12:07:33.373Z,17.77
2022-10-15T12:10:24.371Z,17.50
2022-10-15T12:13:18.770Z,17.57
2022-10-15T12:16:35.188Z,17.75
2022-10-15T12:19:25.512Z,17.95
2022-10-15T12:21:56.795Z,18.03
2022-10-15T12:24:47.567Z,18.02
2022-10-15T12:27:19.965Z,17.90
2022-10-15T12:30:13.975Z,17.81
2022-10-15T12:32:48.737Z,17.64
2022-10-15T12:35:16.264Z,17.44
2022-10-15T12:37:47.247Z,17.59
2022-10-15T12:40:23.606Z,17.66
2022-10-15T12:43:03.563Z,17.90
2022-10-15T12:45:40.446Z,17.87
2022-10-15T12:48:16.779Z,17.84
2022-10-15T12:50:46.936Z,17.68
2022-10-15T12:53:28.635Z,17.66
2022-10-15T12:56:40.361Z,17.85
2022-10-15T12:59:51.087Z,18.11
2022-10-15T13:02:46.938Z,18.18
2022-10-15T13:05:34.374Z,17.98
2022-10-15T13:08:13.618Z,17.99
2022-10-15T13:10:51.854Z,18.03
2022-10-15T13:13:33.959Z,17.88
2022-10-15T13:16:09.618Z,17.97
2022-10-15T13:18:37.586Z,17.99
2022-10-15T13:21:06.699Z,17.86
2022-10-15T13:23:36.386Z,17.78
2022-10-15T13:26:12.852Z,17.92
2022-10-15T13:28:42.406Z,17.90
2022-10-15T13:31:26.062Z,17.91
2022-10-15T13:34:08.780Z,17.83
2022-10-15T13:36:36.516Z,17.69
2022-10-15T13:39:08.620Z,17.61
2022-10-15T13:41:40.492Z,17.57
2022-10-15T13:44:24.691Z,17.54
2022-10-15T13:46:52.207Z,17.53
2022-10-15T13:49:21.478Z,17.46
2022-10-15T13:51:53.315Z,17.34
2022-10-15T13:54:31.713Z,17.30
2022-10-15T13:57:02.182Z,17.15
2022-10-15T13:59:31.286Z,17.15
2022-10-15T14:02:02.209Z,17.06
2022-10-15T14:04:32.834Z,16.97
2022-10-15T14:07:23.104Z,17.12
2022-10-15T14:09:50.793Z,16.98
2022-10-15T14:12:17.996Z,17.13
2022-10-15T14:14:48.211Z,17.31
2022-10-15T14:17:26.566Z,17.31
2022-10-15T14:20:27.195Z,17.15
2022-10-15T14:22:54.145Z,17.14
2022-10-15T14:25:25.324Z,16.98
2022-10-15T14:27:53.132Z,16.86
2022-10-15T14:30:34.155Z,16.66
2022-10-15T14:33:01.470Z,16.48
2022-10-15T14:35:35.558Z,16.43
2022-10-15T14:38:08.883Z,16.45
2022-10-15T14:40:36.522Z,16.32
2022-10-15T14:43:13.673Z,16.32
2022-10-15T14:45:55.689Z,16.41
2022-10-15T14:48:42.841Z,16.33
2022-10-15T14:51:23.283Z,16.30
2022-10-15T14:53:53.004Z,16.13
2022-10-15T14:56:30.018Z,16.12
2022-10-15T14:58:58.710Z,16.07
2022-10-15T15:01:27.695Z,16.07
2022-10-15T15:03:57.170Z,16.07
2022-10-15T15:06:24.653Z,15.96
2022-10-15T15:08:51.824Z,15.85
2022-10-15T15:11:24.215Z,15.74
2022-10-15T15:13:52.602Z,15.59
2022-10-15T15:16:20.234Z,15.59
2022-10-15T15:18:48.934Z,15.57
2022-10-15T15:21:22.355Z,15.61
2022-10-15T15:23:50.008Z,15.63
2022-10-15T15:26:17.224Z,15.67
2022-10-15T15:28:44.587Z,15.61
2022-10-15T15:31:18.578Z,15.52
2022-10-15T15:33:46.150Z,15.50
2022-10-15T15:36:20.712Z,15.51
2022-10-15T15:38:51.789Z,15.45
2022-10-15T15:41:22.591Z,15.47
2022-10-15T15:43:50.699Z,15.44
2022-10-15T15:46:18.238Z,15.35
2022-10-15T15:48:45.467Z,15.29
2022-10-15T15:51:41.902Z,15.24
2022-10-15T15:54:10.576Z,15.29
2022-10-15T15:56:39.930Z,15.41
2022-10-15T15:59:07.326Z,15.33
2022-10-15T16:01:34.622Z,15.25
2022-10-15T16:04:01.962Z,15.16
2022-10-15T16:06:29.321Z,15.17
2022-10-15T16:08:59.541Z,15.24
2022-10-15T16:11:27.137Z,15.09
2022-10-15T16:13:54.455Z,15.17
2022-10-15T16:16:21.715Z,15.14
2022-10-15T16:18:49.046Z,15.13
2022-10-15T16:21:25.869Z,15.14
2022-10-15T16:23:53.779Z,15.08
2022-10-15T16:26:21.322Z,15.09
2022-10-15T16:28:48.736Z,14.96
2022-10-15T16:31:32.468Z,15.05
2022-10-15T16:33:59.854Z,15.07
2022-10-15T16:36:27.093Z,15.13
2022-10-15T16:38:54.412Z,15.17
2022-10-15T16:41:21.971Z,15.19
2022-10-15T16:43:49.553Z,15.12
2022-10-15T16:46:19.021Z,15.08
2022-10-15T16:48:51.678Z,15.19
2022-10-15T16:51:19.109Z,15.10
2022-10-15T16:53:47.594Z,15.18
2022-10-15T16:56:25.686Z,15.11
2022-10-15T16:58:53.566Z,14.89
2022-10-15T17:01:27.759Z,14.64
2022-10-15T17:03:55.504Z,14.76
2022-10-15T17:06:28.247Z,14.82
2022-10-15T17:08:58.601Z,14.77
2022-10-15T17:11:29.519Z,14.77
2022-10-15T17:14:00.545Z,14.79
2022-10-15T17:16:31.453Z,14.91
2022-10-15T17:18:59.212Z,14.83
2022-10-15T17:21:29.834Z,14.87
2022-10-15T17:24:01.043Z,14.83
2022-10-15T17:26:39.112Z,14.79
2022-10-15T17:29:10.301Z,14.68
2022-10-15T17:31:38.678Z,14.64
2022-10-15T17:34:09.899Z,14.81
2022-10-15T17:36:45.178Z,14.75
2022-10-15T17:39:16.091Z,14.83
2022-10-15T17:41:44.207Z,14.74
2022-10-15T17:44:11.944Z,14.80
2022-10-15T17:46:40.350Z,14.75
2022-10-15T17:49:09.823Z,14.82
2022-10-15T17:51:38.231Z,14.77
2022-10-15T17:54:06.825Z,14.66
2022-10-15T17:56:39.460Z,14.73
2022-10-15T17:59:10.801Z,14.66
2022-10-15T18:01:59.220Z,14.76
2022-10-15T18:04:30.041Z,14.80
2022-10-15T18:06:57.708Z,14.76
2022-10-15T18:09:27.079Z,14.88
2022-10-15T18:12:00.658Z,14.79
2022-10-15T18:14:29.532Z,14.77
2022-10-15T18:16:57.197Z,14.81
2022-10-15T18:19:26.586Z,14.96
2022-10-15T18:21:55.718Z,14.93
2022-10-15T18:24:24.274Z,14.78
2022-10-15T18:26:52.261Z,14.57
2022-10-15T18:29:20.463Z,14.64
2022-10-15T18:31:48.864Z,14.49
2022-10-15T18:34:17.549Z,14.53
2022-10-15T18:36:45.060Z,14.41
2022-10-15T18:39:12.311Z,14.26
2022-10-15T18:41:41.189Z,14.16
2022-10-15T18:44:16.094Z,14.06
2022-10-15T18:46:45.724Z,14.09
2022-10-15T18:49:15.400Z,14.20
2022-10-15T18:51:46.226Z,14.25
2022-10-15T18:54:13.825Z,14.26
2022-10-15T18:56:41.570Z,14.12
2022-10-15T18:59:08.985Z,14.16
2022-10-15T19:01:39.681Z,14.30
2022-10-15T19:04:14.258Z,14.32
2022-10-15T19:06:45.238Z,14.30
2022-10-15T19:09:19.576Z,14.36
2022-10-15T19:11:49.907Z,14.42
2022-10-15T19:14:18.120Z,14.44
2022-10-15T19:16:46.982Z,14.38
2022-10-15T19:19:18.799Z,14.54
2022-10-15T19:21:48.606Z,14.56
2022-10-15T19:24:19.401Z,14.48
2022-10-15T19:26:47.721Z,14.43
2022-10-15T19:29:15.381Z,14.46
2022-10-15T19:31:47.073Z,14.51
2022-10-15T19:34:15.050Z,14.39
2022-10-15T19:36:48.248Z,14.50
2022-10-15T19:39:22.378Z,14.55
2022-10-15T19:41:51.591Z,14.63
2022-10-15T19:44:25.690Z,14.66
2022-10-15T19:46:57.810Z,14.60
2022-10-15T19:49:25.729Z,14.60
2022-10-15T19:51:53.358Z,14.63
2022-10-15T19:54:20.750Z,14.57
2022-10-15T19:56:48.205Z,14.63
2022-10-15T19:59:16.948Z,14.59
2022-10-15T20:01:44.169Z,14.55
2022-10-15T20:04:11.661Z,14.53
2022-10-15T20:06:39.156Z,14.55
2022-10-15T20:09:07.587Z,14.54
2022-10-15T20:11:36.297Z,14.66
2022-10-15T20:14:04.302Z,14.63
2022-10-15T20:16:33.422Z,14.59
2022-10-15T20:19:03.995Z,14.57
2022-10-15T20:21:32.235Z,14.58
2022-10-15T20:24:04.437Z,14.57
2022-10-15T20:26:32.640Z,14.62
2022-10-15T20:29:00.353Z,14.64
2022-10-15T20:31:32.887Z,14.66
2022-10-15T20:34:01.694Z,14.72
2022-10-15T20:36:29.071Z,14.60
2022-10-15T20:38:57.551Z,14.57
2022-10-15T20:41:25.009Z,14.55
2022-10-15T20:43:56.346Z,14.52
2022-10-15T20:46:35.461Z,14.50
2022-10-15T20:49:15.056Z,14.58
2022-10-15T20:51:45.121Z,14.63
2022-10-15T20:54:14.182Z,14.70
2022-10-15T20:56:42.674Z,14.64
2022-10-15T20:59:09.975Z,14.59
2022-10-15T21:01:37.667Z,14.58
2022-10-15T21:04:06.298Z,14.63
2022-10-15T21:06:33.785Z,14.57
2022-10-15T21:09:01.193Z,14.58
2022-10-15T21:11:28.810Z,14.55
2022-10-15T21:13:56.092Z,14.58
2022-10-15T21:16:27.359Z,14.52
2022-10-15T21:18:56.064Z,14.57
2022-10-15T21:21:23.424Z,14.56
2022-10-15T21:23:50.813Z,14.53
2022-10-15T21:26:19.626Z,14.52
2022-10-15T21:28:47.368Z,14.49
2022-10-15T21:31:17.401Z,14.53
2022-10-15T21:33:46.200Z,14.45
2022-10-15T21:36:24.388Z,14.41
2022-10-15T21:39:01.224Z,14.37
2022-10-15T21:41:31.352Z,14.43
2022-10-15T21:44:01.001Z,14.41
2022-10-15T21:46:28.521Z,14.43
2022-10-15T21:48:55.764Z,14.46
2022-10-15T21:51:27.059Z,14.51
2022-10-15T21:53:55.618Z,14.53
2022-10-15T21:56:23.813Z,14.53
2022-10-15T21:58:52.372Z,14.54
2022-10-15T22:01:23.938Z,14.60
2022-10-15T22:03:57.242Z,14.54
2022-10-15T22:06:24.750Z,14.54
2022-10-15T22:08:52.576Z,14.50
2022-10-15T22:11:23.075Z,14.51
2022-10-15T22:13:52.951Z,14.48
2022-10-15T22:16:22.977Z,14.50
2022-10-15T22:18:50.617Z,14.44
2022-10-15T22:21:19.559Z,14.46
2022-10-15T22:23:50.434Z,14.49
2022-10-15T22:26:19.951Z,14.46
2022-10-15T22:28:48.003Z,14.51
2022-10-15T22:31:17.162Z,14.47
2022-10-15T22:33:45.828Z,14.45
2022-10-15T22:36:22.124Z,14.36
2022-10-15T22:38:53.840Z,14.30
2022-10-15T22:41:21.264Z,14.34
2022-10-15T22:43:48.685Z,14.48
2022-10-15T22:46:16.310Z,14.57
2022-10-15T22:48:43.838Z,14.55
2022-10-15T22:51:14.039Z,14.60
2022-10-15T22:53:41.647Z,14.67
2022-10-15T22:56:17.156Z,14.73
2022-10-15T22:58:45.655Z,14.72
2022-10-15T23:01:21.849Z,14.68
2022-10-15T23:03:52.292Z,14.62
2022-10-15T23:06:20.952Z,14.48
2022-10-15T23:08:49.132Z,14.47
2022-10-15T23:11:24.164Z,14.52
2022-10-15T23:13:58.792Z,14.58
2022-10-15T23:16:30.549Z,14.48
2022-10-15T23:19:01.744Z,14.34
2022-10-15T23:21:45.433Z,14.31
2022-10-15T23:24:13.675Z,14.12
2022-10-15T23:26:41.700Z,13.95
2022-10-15T23:29:17.074Z,13.76
2022-10-15T23:31:45.045Z,13.54
2022-10-15T23:34:20.149Z,13.37
2022-10-15T23:36:48.673Z,13.27
2022-10-15T23:39:19.545Z,13.21
2022-10-15T23:41:46.801Z,13.17
2022-10-15T23:44:14.122Z,13.06
2022-10-15T23:46:41.742Z,12.87
2022-10-15T23:49:09.996Z,12.81
2022-10-15T23:51:38.171Z,12.71
2022-10-15T23:54:17.811Z,12.63
2022-10-15T23:56:47.072Z,12.72
2022-10-15T23:59:15.456Z,12.85
